Impacts TAF Board INFO
FOR SITUATIONAL AWARENESS. NOT TO BE USED FOR FLIGHT PLANNING PURPOSES.
IDs:

KSLC - Salt Lake City Intl, UT, US

Issued at 0901 UTC 20 Jan 2018
Updated at 1058 UTC 20 Jan 2018
Potential Impact None Slight Moderate High
Time1054Z 20/11Z 20/12Z 20/13Z 20/14Z 20/15Z 20/16Z 20/17Z 20/18Z 20/19Z 20/20Z 20/21Z 20/22Z 20/23Z>>
Type OBS PRVL PRVL PRVL PRVL PRVL PRVL PRVL PRVL PRVL PRVL PRVL PRVL PRVL
VIS 1 2 2 2 2 4 4 4 4 4 4 4 4 >6
CIG 13 12 12 12 12 20 20 20 20 20 20 20 20 40
Cover OVC BKN BKN BKN BKN OVC OVC OVC OVC OVC OVC OVC OVC OVC
FltCat IFR IFR IFR IFR IFR MVFR MVFR MVFR MVFR MVFR MVFR MVFR MVFR VFR
WX -SN BR -SN BR -SN BR -SN BR -SN BR -SHSN -SHSN -SHSN -SHSN -SHSN -SHSN -SHSN -SHSN VCSH
WDir 330 310 310 310 310 320 320 320 320 320 320 320 320 320
WSpd 8 10 10 10 10 10 10 10 10 10 10 10 10 10
WGst -- -- -- -- -- -- -- -- -- -- -- -- -- --

Raw TAF
KSLC 200901Z 2009/2112 31010KT 2SM -SN BR FEW005 BKN012
  FM201500 32010KT 4SM -SHSN BKN020 OVC040
  FM202300 32010KT P6SM VCSH BKN040 OVC060
  FM210200 35010KT P6SM SCT040 BKN060


Raw METAR
KSLC 201054Z 33008KT 1SM R16L/P6000FT -SN BR FEW005 OVC013 00/M01 A2990 RMK AO2 SFC VIS 1 3/4 SLP122 P0003 T00001006
KSLC 201034Z 31007KT 1SM R16L/P6000FT -SN BR SCT007 OVC012 00/M01 A2991 RMK AO2 SFC VIS 1 1/2 CIG 007 NW RNWY P0002 T00001006
KSLC 200954Z 31010KT 1SM R16L/6000VP6000FT -SN BR OVC007 01/M01 A2992 RMK AO2 SLP125 P0005 T00061006
KSLC 200941Z 32010KT 3/4SM R16L/5000V6000FT -SN BR OVC008 01/M01 A2992 RMK AO2 TWR VIS 1 P0004 T00061006
KSLC 200929Z 31010KT 1SM R16L/5500VP6000FT -SN BR OVC009 01/M01 A2992 RMK AO2 TWR VIS 2 P0002 T00061006
KSLC 200903Z 31008KT 1 1/2SM -SN BR FEW005 OVC013 01/M01 A2992 RMK AO2 TWR VIS 2 P0000 T00061006
KSLC 200854Z COR 32008KT 2SM -SN BR FEW005 OVC014 01/M01 A2992 RMK AO2 SLP125 P0002 60006 T00061006 55008
KSLC 200827Z 32009KT 2SM -SN BR FEW004 OVC016 01/M01 A2992 RMK AO2 P0001 T00061006
KSLC 200802Z 32011KT 1 1/2SM -SN BR FEW005 OVC016 01/M01 A2991 RMK AO2 TWR VIS 2 P0000 T00061006
KSLC 200754Z 33011KT 2SM -SN BR FEW005 OVC018 01/M01 A2991 RMK AO2 SLP118 P0002 T00061006
KSLC 200751Z 33013KT 2SM -SN BR FEW005 OVC018 01/M01 A2991 RMK AO2 P0002

METAR Board
Radar Display
Forecast Discussion

FOR SITUATIONAL AWARENESS. NOT TO BE USED FOR FLIGHT PLANNING PURPOSES.